Time;durP1;ratioP1;P1;durP2;ratioP2;P2;SDS_P1;SDS_P2;PMS_P1;PMS_P2;Temp;Humidity;BMP_temperature;BMP_pressure;BME280_temperature;BME280_humidity;BME280_pressure;Samples;Min_cycle;Max_cycle;Signal;HPM_P1;HPM_P2
2022/10/31 00:02:07;;;;;;;13.83;10.00;;;;;;;;;;5074615;28;20565;-69
2022/10/31 00:04:34;;;;;;;16.13;11.23;;;;;;;;;;5075306;28;20444;-68
2022/10/31 00:07:02;;;;;;;12.67;8.83;;;;;;;;;;5075577;28;20868;-71
2022/10/31 00:09:29;;;;;;;11.70;8.80;;;;;;;;;;5074780;28;20463;-70
2022/10/31 00:11:56;;;;;;;16.73;10.80;;;;;;;;;;5074529;28;20458;-70
2022/10/31 00:14:23;;;;;;;13.40;9.00;;;;;;;;;;5074436;28;20550;-70
2022/10/31 00:16:50;;;;;;;15.50;10.33;;;;;;;;;;5075274;28;20452;-70
2022/10/31 00:19:17;;;;;;;18.70;10.63;;;;;;;;;;5074492;28;20437;-70
2022/10/31 00:21:44;;;;;;;15.30;10.83;;;;;;;;;;5074314;28;20520;-70
2022/10/31 00:24:12;;;;;;;12.83;9.57;;;;;;;;;;5074981;28;20540;-70
2022/10/31 00:26:39;;;;;;;18.10;11.07;;;;;;;;;;5075301;28;20468;-70
2022/10/31 00:29:07;;;;;;;18.33;9.93;;;;;;;;;;5075346;28;20542;-70
2022/10/31 00:31:34;;;;;;;21.33;9.80;;;;;;;;;;5074635;28;20513;-70
2022/10/31 00:34:02;;;;;;;11.87;9.30;;;;;;;;;;5075606;28;20733;-70
2022/10/31 00:36:29;;;;;;;15.47;10.40;;;;;;;;;;5074530;28;20472;-70
2022/10/31 00:38:56;;;;;;;13.17;10.20;;;;;;;;;;5075016;28;20452;-70
2022/10/31 00:41:24;;;;;;;18.43;9.73;;;;;;;;;;5075418;28;20554;-70
2022/10/31 00:43:51;;;;;;;11.00;8.87;;;;;;;;;;5075137;28;21057;-70
2022/10/31 00:46:18;;;;;;;12.37;9.40;;;;;;;;;;5074891;28;20440;-70
2022/10/31 00:48:46;;;;;;;15.90;9.50;;;;;;;;;;5074501;28;20475;-70
2022/10/31 00:51:15;;;;;;;12.60;9.50;;;;;;;;;;5075189;28;20457;-70
2022/10/31 00:53:42;;;;;;;17.77;9.67;;;;;;;;;;5074549;28;20456;-70
2022/10/31 00:56:09;;;;;;;18.50;10.17;;;;;;;;;;5074826;28;20456;-70
2022/10/31 00:58:37;;;;;;;16.93;8.20;;;;;;;;;;5075065;28;20785;-70
2022/10/31 01:01:07;;;;;;;16.40;10.07;;;;;;;;;;5074132;28;20496;-70
2022/10/31 01:03:34;;;;;;;12.80;9.00;;;;;;;;;;5074362;28;20459;-70
2022/10/31 01:06:02;;;;;;;17.90;9.00;;;;;;;;;;5074547;28;20460;-70
2022/10/31 01:08:30;;;;;;;18.97;10.33;;;;;;;;;;5074660;28;20459;-70
2022/10/31 01:11:01;;;;;;;17.93;9.33;;;;;;;;;;5074387;28;20915;-70
2022/10/31 01:13:28;;;;;;;13.80;9.37;;;;;;;;;;5073491;28;20456;-70
2022/10/31 01:15:56;;;;;;;18.10;8.50;;;;;;;;;;5074420;28;20460;-70
2022/10/31 01:18:23;;;;;;;11.43;8.60;;;;;;;;;;5074296;28;20463;-70
2022/10/31 01:20:57;;;;;;;13.40;8.57;;;;;;;;;;5073161;28;20483;-70
2022/10/31 01:23:25;;;;;;;16.13;9.07;;;;;;;;;;5073437;28;20455;-69
2022/10/31 01:25:59;;;;;;;12.23;7.37;;;;;;;;;;5073697;28;20463;-70
2022/10/31 01:28:26;;;;;;;12.47;8.90;;;;;;;;;;5074133;28;20482;-70
2022/10/31 01:30:53;;;;;;;10.20;8.03;;;;;;;;;;5072475;28;20476;-70
2022/10/31 01:33:21;;;;;;;14.33;9.13;;;;;;;;;;5074617;28;20449;-70
2022/10/31 01:35:48;;;;;;;14.97;8.23;;;;;;;;;;5074204;28;20552;-70
2022/10/31 01:38:15;;;;;;;9.60;8.27;;;;;;;;;;5077080;28;20448;-70
2022/10/31 01:40:42;;;;;;;17.03;10.80;;;;;;;;;;5077813;28;20551;-69
2022/10/31 01:43:12;;;;;;;17.90;9.50;;;;;;;;;;5077842;28;20449;-70
2022/10/31 01:45:39;;;;;;;11.50;7.80;;;;;;;;;;5077591;28;20479;-69
2022/10/31 01:48:13;;;;;;;13.57;8.20;;;;;;;;;;5077732;28;20522;-70
2022/10/31 01:50:45;;;;;;;12.00;9.17;;;;;;;;;;5077810;28;21005;-70
2022/10/31 01:53:13;;;;;;;10.63;7.73;;;;;;;;;;5077690;28;20857;-70
2022/10/31 01:55:41;;;;;;;12.73;7.57;;;;;;;;;;5077707;28;20506;-70
2022/10/31 01:58:10;;;;;;;14.33;8.53;;;;;;;;;;5077493;28;20746;-70
2022/10/31 02:00:37;;;;;;;10.67;8.10;;;;;;;;;;5077122;28;20448;-71
2022/10/31 02:03:04;;;;;;;10.90;7.67;;;;;;;;;;5077481;28;20448;-70
2022/10/31 02:05:31;;;;;;;14.53;9.10;;;;;;;;;;5077415;28;20869;-70
2022/10/31 02:08:01;;;;;;;12.90;8.70;;;;;;;;;;5076580;28;20849;-69
2022/10/31 02:10:28;;;;;;;12.77;7.73;;;;;;;;;;5077336;28;20559;-70
2022/10/31 02:12:57;;;;;;;13.57;8.83;;;;;;;;;;5077178;28;20452;-70
2022/10/31 02:15:31;;;;;;;16.03;9.20;;;;;;;;;;5077491;28;20463;-70
2022/10/31 02:18:01;;;;;;;15.73;9.40;;;;;;;;;;5076588;28;20459;-70
2022/10/31 02:20:31;;;;;;;14.73;8.63;;;;;;;;;;5077388;28;20463;-70
2022/10/31 02:23:20;;;;;;;15.30;9.63;;;;;;;;;;5077163;28;20452;-70
2022/10/31 02:25:54;;;;;;;19.77;10.30;;;;;;;;;;5077373;28;20501;-70
2022/10/31 02:28:31;;;;;;;17.90;9.93;;;;;;;;;;5076909;28;20459;-70
2022/10/31 02:31:15;;;;;;;14.20;9.43;;;;;;;;;;5077307;28;20554;-70
2022/10/31 02:33:44;;;;;;;21.23;9.63;;;;;;;;;;5076915;28;20453;-70
2022/10/31 02:36:13;;;;;;;16.10;9.50;;;;;;;;;;5076858;28;20452;-69
2022/10/31 02:38:43;;;;;;;24.13;10.27;;;;;;;;;;5077191;28;20452;-69
2022/10/31 02:41:16;;;;;;;19.30;9.17;;;;;;;;;;5076367;28;20594;-71
2022/10/31 02:43:46;;;;;;;23.57;11.53;;;;;;;;;;5076864;28;20444;-71
2022/10/31 02:46:15;;;;;;;19.70;12.07;;;;;;;;;;5076400;28;20466;-70
2022/10/31 02:48:45;;;;;;;23.20;12.00;;;;;;;;;;5075557;28;20448;-70
2022/10/31 02:51:15;;;;;;;19.30;11.07;;;;;;;;;;5077107;28;20460;-70
2022/10/31 02:53:42;;;;;;;21.43;12.90;;;;;;;;;;5077329;28;21205;-69
2022/10/31 02:56:12;;;;;;;25.80;14.13;;;;;;;;;;5076728;28;20471;-70
2022/10/31 02:58:41;;;;;;;23.47;13.00;;;;;;;;;;5076726;28;20872;-70
2022/10/31 03:01:19;;;;;;;23.63;13.40;;;;;;;;;;5077177;28;20816;-70
2022/10/31 03:03:53;;;;;;;19.67;11.23;;;;;;;;;;5076707;28;20516;-69
2022/10/31 03:06:23;;;;;;;30.40;14.53;;;;;;;;;;5075390;28;20456;-70
2022/10/31 03:08:53;;;;;;;23.00;14.40;;;;;;;;;;5076409;28;20884;-70
2022/10/31 03:11:24;;;;;;;23.77;15.20;;;;;;;;;;5063635;28;20469;-70
2022/10/31 03:13:58;;;;;;;24.23;14.77;;;;;;;;;;5056636;28;20523;-70
2022/10/31 03:16:30;;;;;;;24.30;16.00;;;;;;;;;;5056250;28;20784;-70
2022/10/31 03:18:59;;;;;;;27.77;14.70;;;;;;;;;;5055594;28;20915;-70
2022/10/31 03:21:28;;;;;;;24.20;14.73;;;;;;;;;;5056686;28;20485;-70
2022/10/31 03:23:56;;;;;;;27.33;16.17;;;;;;;;;;5056028;28;20524;-70
2022/10/31 03:26:24;;;;;;;26.80;16.20;;;;;;;;;;5055691;28;20840;-70
2022/10/31 03:28:52;;;;;;;33.83;20.50;;;;;;;;;;5056117;28;20496;-70
2022/10/31 03:31:20;;;;;;;33.87;17.53;;;;;;;;;;5055661;28;20465;-70
2022/10/31 03:33:48;;;;;;;38.50;18.17;;;;;;;;;;5055672;28;20448;-70
2022/10/31 03:36:17;;;;;;;32.87;19.00;;;;;;;;;;5055412;28;20492;-70
2022/10/31 03:38:48;;;;;;;29.50;16.73;;;;;;;;;;5054393;28;20445;-70
2022/10/31 03:41:16;;;;;;;40.30;18.60;;;;;;;;;;5055289;28;20485;-70
2022/10/31 03:43:44;;;;;;;32.53;18.00;;;;;;;;;;5055718;28;20481;-70
2022/10/31 03:46:12;;;;;;;31.57;19.30;;;;;;;;;;5055723;28;20602;-70
2022/10/31 03:48:39;;;;;;;30.90;18.73;;;;;;;;;;5055329;28;20466;-70
2022/10/31 03:51:09;;;;;;;44.33;21.27;;;;;;;;;;5056144;28;20473;-70
2022/10/31 03:53:40;;;;;;;30.43;19.50;;;;;;;;;;5055341;28;20500;-69
2022/10/31 03:56:11;;;;;;;35.43;20.37;;;;;;;;;;5055098;28;20531;-70
2022/10/31 03:58:39;;;;;;;33.50;21.37;;;;;;;;;;5054881;28;20880;-70
2022/10/31 04:01:07;;;;;;;31.47;19.33;;;;;;;;;;5054914;28;20811;-70
2022/10/31 04:03:36;;;;;;;39.53;21.77;;;;;;;;;;5054952;28;20449;-70
2022/10/31 04:06:08;;;;;;;45.67;21.60;;;;;;;;;;5055430;28;20868;-70
2022/10/31 04:08:38;;;;;;;37.50;20.87;;;;;;;;;;5055503;28;20441;-70
2022/10/31 04:11:06;;;;;;;38.17;20.10;;;;;;;;;;5055814;28;20468;-70
2022/10/31 04:13:35;;;;;;;37.87;22.90;;;;;;;;;;5055607;28;20462;-70
2022/10/31 04:16:02;;;;;;;28.93;18.90;;;;;;;;;;5055409;28;20961;-70
2022/10/31 04:18:29;;;;;;;41.60;21.80;;;;;;;;;;5055377;28;20457;-70
2022/10/31 04:21:02;;;;;;;34.97;21.13;;;;;;;;;;5055404;28;20454;-69
2022/10/31 04:23:29;;;;;;;43.90;20.23;;;;;;;;;;5055075;28;20473;-70
2022/10/31 04:25:57;;;;;;;48.00;24.50;;;;;;;;;;5055510;28;20462;-70
2022/10/31 04:28:24;;;;;;;37.60;21.10;;;;;;;;;;5055388;28;20489;-70
2022/10/31 04:30:51;;;;;;;33.77;20.67;;;;;;;;;;5054855;28;20461;-69
2022/10/31 04:33:18;;;;;;;40.00;20.63;;;;;;;;;;5055400;28;20582;-69
2022/10/31 04:35:45;;;;;;;33.77;21.77;;;;;;;;;;5055630;28;20446;-69
2022/10/31 04:38:13;;;;;;;37.40;22.33;;;;;;;;;;5054878;28;20457;-69
2022/10/31 04:40:40;;;;;;;48.43;21.43;;;;;;;;;;5055313;28;20457;-69
2022/10/31 04:43:07;;;;;;;36.17;20.10;;;;;;;;;;5054921;28;20801;-69
2022/10/31 04:45:34;;;;;;;44.03;21.87;;;;;;;;;;5055254;28;20459;-69
2022/10/31 04:48:01;;;;;;;47.90;21.50;;;;;;;;;;5054733;28;20519;-70
2022/10/31 04:50:28;;;;;;;36.63;21.87;;;;;;;;;;5054841;28;20857;-70
2022/10/31 04:52:55;;;;;;;37.77;21.90;;;;;;;;;;5054893;28;20496;-70
2022/10/31 04:55:22;;;;;;;41.47;20.83;;;;;;;;;;5055193;28;20534;-70
2022/10/31 04:57:50;;;;;;;36.77;23.73;;;;;;;;;;5054630;28;20931;-71
2022/10/31 05:00:19;;;;;;;41.70;21.23;;;;;;;;;;5054103;28;20485;-70
2022/10/31 05:02:46;;;;;;;40.93;20.07;;;;;;;;;;5055221;28;20821;-70
2022/10/31 05:05:13;;;;;;;38.37;22.40;;;;;;;;;;5054542;28;20519;-70
2022/10/31 05:07:41;;;;;;;40.17;22.47;;;;;;;;;;5055201;28;20496;-70
2022/10/31 05:10:09;;;;;;;38.33;20.23;;;;;;;;;;5054554;28;20457;-70
2022/10/31 05:12:36;;;;;;;31.83;19.37;;;;;;;;;;5055758;28;20468;-70
2022/10/31 05:15:03;;;;;;;37.23;20.00;;;;;;;;;;5061630;28;20468;-70
2022/10/31 05:17:32;;;;;;;37.50;21.20;;;;;;;;;;5057781;28;20461;-70
2022/10/31 05:19:59;;;;;;;38.20;20.30;;;;;;;;;;5057990;28;20453;-70
2022/10/31 05:22:26;;;;;;;41.33;21.30;;;;;;;;;;5057624;28;20491;-68
2022/10/31 05:24:55;;;;;;;36.63;19.70;;;;;;;;;;5057800;28;20445;-70
2022/10/31 05:27:22;;;;;;;38.40;20.23;;;;;;;;;;5057569;28;20461;-70
2022/10/31 05:29:49;;;;;;;38.00;20.50;;;;;;;;;;5057440;28;20437;-70
2022/10/31 05:32:16;;;;;;;38.93;21.93;;;;;;;;;;5059678;28;20496;-70
2022/10/31 05:34:44;;;;;;;40.30;20.10;;;;;;;;;;5075208;28;20460;-70
2022/10/31 05:37:11;;;;;;;40.47;23.10;;;;;;;;;;5077425;28;20778;-70
2022/10/31 05:39:38;;;;;;;49.23;21.23;;;;;;;;;;5077687;28;20484;-70
2022/10/31 05:42:05;;;;;;;62.60;22.10;;;;;;;;;;5077316;28;20488;-70
2022/10/31 05:44:31;;;;;;;36.83;20.83;;;;;;;;;;5077228;28;20437;-70
2022/10/31 05:46:58;;;;;;;36.73;19.63;;;;;;;;;;5077507;28;20539;-70
2022/10/31 05:49:25;;;;;;;43.03;21.70;;;;;;;;;;5077961;28;20452;-70
2022/10/31 05:51:53;;;;;;;38.77;20.47;;;;;;;;;;5077288;28;20551;-70
2022/10/31 05:54:20;;;;;;;31.20;19.00;;;;;;;;;;5077234;28;20865;-70
2022/10/31 05:56:50;;;;;;;38.30;22.87;;;;;;;;;;5078009;28;20483;-71
2022/10/31 05:59:17;;;;;;;38.87;20.27;;;;;;;;;;5077228;28;20455;-70
2022/10/31 06:01:44;;;;;;;35.73;19.43;;;;;;;;;;5077034;28;20492;-70
2022/10/31 06:04:11;;;;;;;36.37;19.23;;;;;;;;;;5077500;28;20448;-70
2022/10/31 06:06:38;;;;;;;37.67;20.43;;;;;;;;;;5077417;28;20453;-70
2022/10/31 06:09:05;;;;;;;42.63;20.07;;;;;;;;;;5076899;28;20561;-71
2022/10/31 06:11:32;;;;;;;39.93;19.17;;;;;;;;;;5077425;28;20520;-70
2022/10/31 06:13:59;;;;;;;36.03;16.83;;;;;;;;;;5077343;28;20541;-70
2022/10/31 06:16:26;;;;;;;39.33;20.33;;;;;;;;;;5077639;28;20470;-70
2022/10/31 06:18:53;;;;;;;34.47;18.10;;;;;;;;;;5076901;28;20588;-70
2022/10/31 06:21:20;;;;;;;36.93;20.10;;;;;;;;;;5077431;28;20515;-70
2022/10/31 06:23:47;;;;;;;34.30;17.97;;;;;;;;;;5077636;28;20515;-70
2022/10/31 06:26:15;;;;;;;32.77;18.40;;;;;;;;;;5077550;28;20542;-70
2022/10/31 06:28:42;;;;;;;30.20;17.57;;;;;;;;;;5076940;28;20865;-70
2022/10/31 06:31:09;;;;;;;29.03;18.10;;;;;;;;;;5077443;28;20506;-70
2022/10/31 06:33:36;;;;;;;34.97;19.40;;;;;;;;;;5077224;28;20793;-71
2022/10/31 06:36:03;;;;;;;33.30;17.70;;;;;;;;;;5076879;28;20873;-70
2022/10/31 06:38:30;;;;;;;32.50;16.50;;;;;;;;;;5076775;28;20460;-70
2022/10/31 06:40:57;;;;;;;36.93;18.87;;;;;;;;;;5073993;28;20823;-69
2022/10/31 06:43:25;;;;;;;29.17;18.80;;;;;;;;;;5076708;28;20786;-70
2022/10/31 06:45:52;;;;;;;42.87;19.50;;;;;;;;;;5076412;28;20451;-69
2022/10/31 06:48:19;;;;;;;36.07;16.87;;;;;;;;;;5075911;28;20796;-70
2022/10/31 06:50:46;;;;;;;36.50;17.77;;;;;;;;;;5076077;28;20904;-70
2022/10/31 06:53:13;;;;;;;30.60;17.03;;;;;;;;;;5076656;28;20460;-70
2022/10/31 06:55:41;;;;;;;30.70;17.73;;;;;;;;;;5069180;28;20465;-70
2022/10/31 06:58:10;;;;;;;32.03;15.80;;;;;;;;;;5076011;28;21194;-70
2022/10/31 07:00:38;;;;;;;31.30;16.23;;;;;;;;;;5076537;28;20563;-69
2022/10/31 07:03:06;;;;;;;36.40;16.27;;;;;;;;;;5072949;28;20499;-70
2022/10/31 07:05:33;;;;;;;32.17;16.00;;;;;;;;;;5067965;28;20533;-69
2022/10/31 07:08:01;;;;;;;31.13;15.90;;;;;;;;;;5065623;28;20869;-70
2022/10/31 07:10:32;;;;;;;33.13;16.70;;;;;;;;;;5073651;28;20533;-70
2022/10/31 07:13:00;;;;;;;26.07;17.73;;;;;;;;;;5075608;28;20467;-70
2022/10/31 07:15:28;;;;;;;31.10;15.50;;;;;;;;;;5075495;28;20453;-70
2022/10/31 07:18:00;;;;;;;31.87;15.87;;;;;;;;;;5074291;28;20539;-70
2022/10/31 07:20:27;;;;;;;38.53;17.07;;;;;;;;;;5076042;28;20492;-69
2022/10/31 07:22:54;;;;;;;23.13;14.97;;;;;;;;;;5074912;28;20499;-70
2022/10/31 07:25:21;;;;;;;29.50;15.97;;;;;;;;;;5076057;28;20878;-69
2022/10/31 07:27:48;;;;;;;30.00;15.53;;;;;;;;;;5075872;28;20471;-69
2022/10/31 07:30:17;;;;;;;25.07;15.23;;;;;;;;;;5075297;28;20526;-69
2022/10/31 07:32:49;;;;;;;28.00;14.80;;;;;;;;;;5076187;28;20924;-69
2022/10/31 07:35:24;;;;;;;31.90;15.50;;;;;;;;;;5075577;28;20452;-70
2022/10/31 07:37:51;;;;;;;25.70;15.30;;;;;;;;;;5075692;28;20448;-70
2022/10/31 07:40:22;;;;;;;25.03;13.73;;;;;;;;;;5076714;28;20513;-69
2022/10/31 07:42:50;;;;;;;24.90;14.37;;;;;;;;;;5075280;28;20813;-71
2022/10/31 07:45:18;;;;;;;25.97;14.40;;;;;;;;;;5075152;28;20880;-70
2022/10/31 07:47:45;;;;;;;30.30;14.47;;;;;;;;;;5075437;28;20866;-71
2022/10/31 07:50:15;;;;;;;28.90;14.57;;;;;;;;;;5075221;28;20488;-70
2022/10/31 07:52:43;;;;;;;24.03;15.00;;;;;;;;;;5075556;28;20920;-70
2022/10/31 07:55:10;;;;;;;34.00;14.20;;;;;;;;;;5074887;28;20464;-70
2022/10/31 07:57:38;;;;;;;25.33;14.50;;;;;;;;;;5075602;28;20449;-70
2022/10/31 08:00:09;;;;;;;27.43;14.13;;;;;;;;;;5075311;28;20464;-69
2022/10/31 08:02:36;;;;;;;24.57;13.70;;;;;;;;;;5074836;28;20575;-70
2022/10/31 08:05:03;;;;;;;24.07;13.00;;;;;;;;;;5074120;28;20465;-71
2022/10/31 08:07:37;;;;;;;23.13;12.47;;;;;;;;;;5073838;28;20689;-70
2022/10/31 08:10:05;;;;;;;25.83;13.03;;;;;;;;;;5074249;28;20460;-70
2022/10/31 08:12:33;;;;;;;23.83;12.80;;;;;;;;;;5074816;28;20484;-70
2022/10/31 08:15:00;;;;;;;24.47;12.53;;;;;;;;;;5074710;28;20475;-70
2022/10/31 08:17:27;;;;;;;25.03;15.20;;;;;;;;;;5073098;28;20492;-70
2022/10/31 08:19:58;;;;;;;22.47;11.90;;;;;;;;;;5074286;28;20862;-70
2022/10/31 08:22:24;;;;;;;21.53;12.57;;;;;;;;;;5074535;28;20573;-69
2022/10/31 08:24:51;;;;;;;22.47;12.03;;;;;;;;;;5072940;28;20449;-70
2022/10/31 08:27:19;;;;;;;20.60;12.60;;;;;;;;;;5073729;28;20477;-69
2022/10/31 08:29:46;;;;;;;23.13;11.90;;;;;;;;;;5073396;28;20737;-70
2022/10/31 08:32:13;;;;;;;24.30;12.10;;;;;;;;;;5074463;28;20563;-69
2022/10/31 08:34:43;;;;;;;20.00;11.73;;;;;;;;;;5073593;28;21099;-70
2022/10/31 08:37:10;;;;;;;22.23;12.47;;;;;;;;;;5073450;28;20469;-70
2022/10/31 08:39:37;;;;;;;22.13;12.40;;;;;;;;;;5074642;28;20483;-70
2022/10/31 08:42:04;;;;;;;23.07;11.60;;;;;;;;;;5074170;28;20582;-70
2022/10/31 08:44:38;;;;;;;20.40;10.10;;;;;;;;;;5073373;28;21063;-70
2022/10/31 08:47:04;;;;;;;18.60;9.50;;;;;;;;;;5071334;28;20797;-70
2022/10/31 08:49:32;;;;;;;23.37;12.17;;;;;;;;;;5074231;28;20460;-70
2022/10/31 08:51:59;;;;;;;14.93;9.67;;;;;;;;;;5074380;28;20471;-69
2022/10/31 08:54:25;;;;;;;18.03;9.50;;;;;;;;;;5074748;28;20488;-70
2022/10/31 08:56:57;;;;;;;17.50;10.60;;;;;;;;;;5072304;28;20479;-70
2022/10/31 08:59:25;;;;;;;18.87;10.40;;;;;;;;;;5072337;28;20452;-70
2022/10/31 09:01:52;;;;;;;19.23;11.13;;;;;;;;;;5056566;28;20485;-71
2022/10/31 09:04:19;;;;;;;15.77;10.17;;;;;;;;;;5053796;28;20586;-70
2022/10/31 09:06:46;;;;;;;21.60;10.27;;;;;;;;;;5053668;28;20533;-70
2022/10/31 09:09:13;;;;;;;19.90;10.47;;;;;;;;;;5053883;28;20507;-70
2022/10/31 09:11:40;;;;;;;18.73;10.03;;;;;;;;;;5053004;28;20437;-70
2022/10/31 09:14:07;;;;;;;21.07;9.20;;;;;;;;;;5061223;28;20464;-70
2022/10/31 09:16:37;;;;;;;14.83;9.73;;;;;;;;;;5071833;28;20464;-71
2022/10/31 09:19:04;;;;;;;19.87;11.20;;;;;;;;;;5063245;28;20464;-70
2022/10/31 09:21:31;;;;;;;25.80;10.63;;;;;;;;;;5053115;28;20480;-70
2022/10/31 09:23:58;;;;;;;19.57;9.50;;;;;;;;;;5052880;28;20441;-70
2022/10/31 09:26:25;;;;;;;16.47;9.40;;;;;;;;;;5055982;28;20465;-70
2022/10/31 09:28:52;;;;;;;20.07;10.87;;;;;;;;;;5071372;28;20895;-70
2022/10/31 09:31:22;;;;;;;14.53;8.73;;;;;;;;;;5072944;28;20552;-70
2022/10/31 09:33:52;;;;;;;16.60;8.63;;;;;;;;;;5071522;28;20479;-71
2022/10/31 09:36:22;;;;;;;14.67;8.20;;;;;;;;;;5068546;28;20465;-71
2022/10/31 09:38:50;;;;;;;18.13;8.90;;;;;;;;;;5063058;28;20959;-71
2022/10/31 09:41:20;;;;;;;10.90;6.53;;;;;;;;;;5059235;28;20473;-70
2022/10/31 09:43:51;;;;;;;13.60;7.43;;;;;;;;;;5057374;28;20446;-70
2022/10/31 09:46:23;;;;;;;17.43;8.27;;;;;;;;;;5052569;28;20817;-70
2022/10/31 09:48:57;;;;;;;14.17;7.77;;;;;;;;;;5051479;28;20946;-70
2022/10/31 09:51:28;;;;;;;16.33;7.90;;;;;;;;;;5055285;28;20514;-70
2022/10/31 09:53:58;;;;;;;11.63;8.10;;;;;;;;;;5061381;28;20465;-70
2022/10/31 09:56:26;;;;;;;13.40;8.37;;;;;;;;;;5052282;28;20456;-70
2022/10/31 09:58:56;;;;;;;13.23;8.17;;;;;;;;;;5070213;28;21047;-70
2022/10/31 10:01:41;;;;;;;14.10;7.03;;;;;;;;;;5069097;28;20443;-70
2022/10/31 10:04:18;;;;;;;15.10;7.57;;;;;;;;;;5066592;28;20432;-71
2022/10/31 10:06:48;;;;;;;14.10;7.07;;;;;;;;;;5063848;28;20432;-69
2022/10/31 10:09:15;;;;;;;12.23;7.23;;;;;;;;;;5055135;28;20492;-70
2022/10/31 10:11:50;;;;;;;11.90;6.20;;;;;;;;;;5060899;28;20554;-70
2022/10/31 10:14:26;;;;;;;12.63;6.87;;;;;;;;;;5073170;28;20787;-70
2022/10/31 10:17:00;;;;;;;13.57;6.90;;;;;;;;;;5075473;28;20467;-70
2022/10/31 10:19:35;;;;;;;13.70;7.70;;;;;;;;;;5072814;28;20499;-70
2022/10/31 10:22:07;;;;;;;11.50;6.10;;;;;;;;;;5054155;28;20566;-69
2022/10/31 10:24:40;;;;;;;14.50;6.70;;;;;;;;;;5055530;28;20458;-69
2022/10/31 10:27:13;;;;;;;11.20;7.10;;;;;;;;;;5054804;28;20536;-70
2022/10/31 10:29:44;;;;;;;10.63;6.77;;;;;;;;;;5064367;28;20514;-70
2022/10/31 10:32:12;;;;;;;9.23;6.30;;;;;;;;;;5074917;28;20460;-69
2022/10/31 10:34:43;;;;;;;10.60;7.73;;;;;;;;;;5074319;28;20461;-69
2022/10/31 10:37:15;;;;;;;13.77;6.20;;;;;;;;;;5065512;28;20469;-70
2022/10/31 10:39:43;;;;;;;10.40;6.33;;;;;;;;;;5062495;28;20479;-70
2022/10/31 10:47:53;;;;;;;10.93;5.70;;;;;;;;;;5054495;28;20448;-70
2022/10/31 10:50:21;;;;;;;13.90;7.43;;;;;;;;;;5054769;28;20565;-70
2022/10/31 10:52:52;;;;;;;11.63;6.67;;;;;;;;;;5054946;28;20552;-70
2022/10/31 10:55:25;;;;;;;10.60;5.90;;;;;;;;;;5054601;28;20464;-70
2022/10/31 10:57:57;;;;;;;12.63;6.30;;;;;;;;;;5054406;28;20454;-70
2022/10/31 11:00:25;;;;;;;10.70;5.90;;;;;;;;;;5054849;28;20463;-70
2022/10/31 11:02:52;;;;;;;10.53;6.33;;;;;;;;;;5054191;28;20570;-70
2022/10/31 11:05:24;;;;;;;11.67;5.40;;;;;;;;;;5054355;28;20448;-69
2022/10/31 11:07:52;;;;;;;9.90;6.30;;;;;;;;;;5054902;28;20462;-71
2022/10/31 11:10:19;;;;;;;9.10;5.40;;;;;;;;;;5052470;28;20485;-70
2022/10/31 11:12:57;;;;;;;10.27;5.40;;;;;;;;;;5052367;28;20492;-70
2022/10/31 11:15:26;;;;;;;10.30;4.83;;;;;;;;;;5052769;28;20460;-70
2022/10/31 11:17:55;;;;;;;9.33;5.37;;;;;;;;;;5058128;28;20469;-68
2022/10/31 11:20:30;;;;;;;11.20;5.60;;;;;;;;;;5073647;28;20448;-70
2022/10/31 11:23:04;;;;;;;7.93;5.30;;;;;;;;;;5074084;28;20480;-71
2022/10/31 11:25:37;;;;;;;11.17;5.40;;;;;;;;;;5074526;28;20498;-70
2022/10/31 11:28:05;;;;;;;10.17;5.20;;;;;;;;;;5074456;28;20453;-69
2022/10/31 11:30:36;;;;;;;8.83;5.33;;;;;;;;;;5073362;28;20780;-71
2022/10/31 11:33:04;;;;;;;10.50;4.57;;;;;;;;;;5073758;28;20468;-71
2022/10/31 11:35:31;;;;;;;7.17;4.20;;;;;;;;;;5074247;28;20978;-70
2022/10/31 11:38:01;;;;;;;9.77;4.80;;;;;;;;;;5074407;28;20899;-69
2022/10/31 11:40:29;;;;;;;8.30;5.53;;;;;;;;;;5074926;28;20487;-69
2022/10/31 11:42:58;;;;;;;9.33;5.30;;;;;;;;;;5070729;28;20493;-71
2022/10/31 11:45:31;;;;;;;6.80;4.27;;;;;;;;;;5073883;28;20452;-70
2022/10/31 11:48:00;;;;;;;6.53;5.10;;;;;;;;;;5072032;28;20551;-71
2022/10/31 11:50:37;;;;;;;8.70;4.60;;;;;;;;;;5072635;28;20960;-70
2022/10/31 11:53:04;;;;;;;7.93;4.50;;;;;;;;;;5068329;28;20828;-70
2022/10/31 11:55:33;;;;;;;9.90;5.60;;;;;;;;;;5071681;28;20610;-70
2022/10/31 11:58:00;;;;;;;7.47;4.10;;;;;;;;;;5073201;28;20456;-70
2022/10/31 12:00:29;;;;;;;7.47;4.13;;;;;;;;;;5069516;28;20451;-70
2022/10/31 12:03:07;;;;;;;9.33;5.20;;;;;;;;;;5053120;28;20496;-70
2022/10/31 12:05:34;;;;;;;8.60;4.40;;;;;;;;;;5069904;28;20551;-70
2022/10/31 12:08:01;;;;;;;8.10;4.10;;;;;;;;;;5064142;28;20530;-70
2022/10/31 12:10:33;;;;;;;10.43;5.60;;;;;;;;;;5071947;28;20453;-71
2022/10/31 12:13:08;;;;;;;5.47;3.93;;;;;;;;;;5065351;28;20472;-71
2022/10/31 12:15:36;;;;;;;10.80;5.73;;;;;;;;;;5069292;28;20464;-70
2022/10/31 12:18:27;;;;;;;10.97;4.10;;;;;;;;;;5070855;28;20460;-70
2022/10/31 12:20:59;;;;;;;6.53;5.20;;;;;;;;;;5051060;28;20817;-70
2022/10/31 12:23:32;;;;;;;8.17;4.37;;;;;;;;;;5070150;28;20796;-70
2022/10/31 12:26:08;;;;;;;9.30;4.83;;;;;;;;;;5070163;28;20484;-70
2022/10/31 12:28:47;;;;;;;8.10;4.40;;;;;;;;;;5071077;28;20454;-70
2022/10/31 12:31:21;;;;;;;7.83;4.63;;;;;;;;;;5071277;28;20937;-70
2022/10/31 12:33:54;;;;;;;11.43;5.60;;;;;;;;;;5072121;28;20452;-71
2022/10/31 12:36:39;;;;;;;15.57;6.33;;;;;;;;;;5071942;28;20444;-71
2022/10/31 12:39:25;;;;;;;7.40;4.40;;;;;;;;;;5068887;28;20499;-70
2022/10/31 12:41:53;;;;;;;9.57;4.87;;;;;;;;;;5073225;28;20480;-71
2022/10/31 12:44:38;;;;;;;4.50;3.20;;;;;;;;;;5072459;28;20447;-71
2022/10/31 12:47:14;;;;;;;5.97;3.57;;;;;;;;;;5071851;28;20459;-71
2022/10/31 12:49:47;;;;;;;9.83;3.43;;;;;;;;;;5072971;28;20456;-71
2022/10/31 12:52:23;;;;;;;5.00;3.00;;;;;;;;;;5072118;28;20540;-70
2022/10/31 12:54:57;;;;;;;5.43;3.60;;;;;;;;;;5073223;28;20872;-70
2022/10/31 12:57:29;;;;;;;6.77;4.60;;;;;;;;;;5072673;28;20547;-71
2022/10/31 13:00:02;;;;;;;11.77;5.30;;;;;;;;;;5073371;28;20452;-70
2022/10/31 13:02:32;;;;;;;6.40;3.90;;;;;;;;;;5072483;28;20485;-70
2022/10/31 13:05:03;;;;;;;6.50;4.60;;;;;;;;;;5072559;28;20814;-72
2022/10/31 13:07:37;;;;;;;11.00;6.30;;;;;;;;;;5072606;28;20459;-70
2022/10/31 13:10:07;;;;;;;6.90;4.10;;;;;;;;;;5071657;28;20506;-70
2022/10/31 13:12:35;;;;;;;6.50;4.10;;;;;;;;;;5070071;28;20487;-70
2022/10/31 13:15:06;;;;;;;7.27;3.77;;;;;;;;;;5073714;28;21032;-70
2022/10/31 13:17:35;;;;;;;8.67;4.07;;;;;;;;;;5072574;28;20475;-70
2022/10/31 13:20:14;;;;;;;7.00;4.70;;;;;;;;;;5072588;28;21163;-70
2022/10/31 13:22:43;;;;;;;6.00;4.07;;;;;;;;;;5072134;28;20480;-70
2022/10/31 13:25:14;;;;;;;5.97;3.90;;;;;;;;;;5072901;28;20551;-70
2022/10/31 13:27:45;;;;;;;7.60;3.00;;;;;;;;;;5071284;28;20502;-70
2022/10/31 13:30:17;;;;;;;8.03;4.50;;;;;;;;;;5071019;28;20534;-70
2022/10/31 13:32:46;;;;;;;10.63;4.40;;;;;;;;;;5070534;28;20792;-70
2022/10/31 13:35:16;;;;;;;9.07;4.37;;;;;;;;;;5062147;28;20457;-71
2022/10/31 13:37:47;;;;;;;8.43;4.20;;;;;;;;;;5054991;28;20915;-70
2022/10/31 13:40:20;;;;;;;6.00;4.10;;;;;;;;;;5069631;28;20987;-70
2022/10/31 13:42:53;;;;;;;8.90;3.90;;;;;;;;;;5074626;28;20542;-70
2022/10/31 13:45:22;;;;;;;5.37;3.80;;;;;;;;;;5074241;28;20479;-70
2022/10/31 13:48:04;;;;;;;8.27;4.47;;;;;;;;;;5062650;28;20471;-70
2022/10/31 13:50:43;;;;;;;7.77;4.27;;;;;;;;;;5056450;28;20948;-71
2022/10/31 13:53:13;;;;;;;8.00;5.10;;;;;;;;;;5064079;28;20475;-71
2022/10/31 13:56:15;;;;;;;9.93;4.83;;;;;;;;;;5065552;28;20496;-70
2022/10/31 13:59:05;;;;;;;7.40;3.97;;;;;;;;;;4987170;28;20455;-70
2022/10/31 14:01:33;;;;;;;8.37;4.40;;;;;;;;;;5017727;28;20482;-70
2022/10/31 14:04:08;;;;;;;7.97;4.50;;;;;;;;;;5054992;28;20463;-70
2022/10/31 14:06:37;;;;;;;9.37;4.73;;;;;;;;;;5057006;28;20480;-70
2022/10/31 14:09:04;;;;;;;12.00;4.17;;;;;;;;;;5073991;28;20911;-71
2022/10/31 14:11:31;;;;;;;8.40;4.50;;;;;;;;;;5074416;28;20460;-71
2022/10/31 14:13:59;;;;;;;12.17;4.40;;;;;;;;;;5072868;28;20468;-71
2022/10/31 14:16:27;;;;;;;6.03;3.80;;;;;;;;;;5073809;28;20455;-70
2022/10/31 14:19:04;;;;;;;6.80;4.20;;;;;;;;;;5067689;28;20538;-70
2022/10/31 14:21:32;;;;;;;8.80;3.77;;;;;;;;;;5071429;28;20468;-70
2022/10/31 14:24:00;;;;;;;10.40;4.57;;;;;;;;;;5071671;28;20475;-71
2022/10/31 14:26:36;;;;;;;6.93;4.20;;;;;;;;;;5071722;28;20457;-72
2022/10/31 14:29:04;;;;;;;7.87;4.30;;;;;;;;;;5070928;28;20461;-71
2022/10/31 14:31:34;;;;;;;9.03;3.70;;;;;;;;;;5053591;28;20461;-71
2022/10/31 14:34:02;;;;;;;8.87;4.97;;;;;;;;;;5054578;28;20445;-70
2022/10/31 14:36:33;;;;;;;9.43;3.80;;;;;;;;;;5072443;28;20452;-71
2022/10/31 14:39:03;;;;;;;8.20;4.17;;;;;;;;;;5073823;28;20452;-71
2022/10/31 14:41:38;;;;;;;9.93;4.77;;;;;;;;;;5073594;28;20903;-71
2022/10/31 14:44:19;;;;;;;7.63;4.53;;;;;;;;;;5062064;28;20967;-71
2022/10/31 14:46:52;;;;;;;5.73;4.23;;;;;;;;;;5049971;28;20904;-71